Česky Dansk Deutsch English Español Suomi Français Magyar Italiano Nederlands norsk Polski Português svenska Türkçe

 

Het Weer

Camiri (Bolivië)

23:00, 20 juli 2016 (GMT)

NWNNE
WE
SWSSE
Home            
Camiri Villamontes Nueva Asuncion Tarija Sucre Yacuiba Potosi Santa Cruz / El Trompillo Viru-Viru Tartagal Aerodrome La Quiaca Observatorio Oran Aerodrome Mariscal Estigarribia San Jose De Chiquitos Cochabamba San Javier Oruro Robore Concepcion Rivadavia Ascencion De Guarayos San Ignacio De Velasco Jujuy Aerodrome

Om een weerknop op uw website of weblog te plaatsen, copieer onderstaande code en plak die in uw pagina. In het eerste vakje staat HTML-code, in het tweede vakje UBB-code.


Add to Google

Details

Visibility:Greater than 10000 m, 10 km, 32800 ft, 6.2 miles
Temperature:15°C, 59°F
Dew-point:10°C, 50°F
Atmospheric pressure:1022 hPa, 766.6 mmHg, 30.18 inHg, 1.009 atm
Relative humidity:72.0 %
METAR:SLCA 202300Z 00000KT 9999 NSC 15/10 Q1022

Snelkoppelingen

Actuele weersinformatie van de hele wereld. Voeg locaties toe met het plus (+) symbool. Deze snelkoppelingen kunnen worden toegevoegd aan Google.

Lid van de Technetium groep

website free tracking
StatCounter NetStat W3C Validator

24-11-2020 09:52:41
astro.technetium.be money.technetium.be phote.technetium.be tafeltennistafel.technetium.be www.ligfiets.net